sensor_id;sensor_type;location;lat;lon;timestamp;P1;durP1;ratioP1;P2;durP2;ratioP2
47539;SDS011;33280;52.152;21.052;2023-05-10T00:00:21;12.87;;;5.70;;
47539;SDS011;33280;52.152;21.052;2023-05-10T00:02:50;11.93;;;5.80;;
47539;SDS011;33280;52.152;21.052;2023-05-10T00:05:17;10.40;;;5.90;;
47539;SDS011;33280;52.152;21.052;2023-05-10T00:07:45;9.27;;;5.70;;
47539;SDS011;33280;52.152;21.052;2023-05-10T00:10:12;13.00;;;6.27;;
47539;SDS011;33280;52.152;21.052;2023-05-10T00:12:39;11.53;;;6.20;;
47539;SDS011;33280;52.152;21.052;2023-05-10T00:15:08;11.27;;;5.70;;
47539;SDS011;33280;52.152;21.052;2023-05-10T00:17:35;9.03;;;5.50;;
47539;SDS011;33280;52.152;21.052;2023-05-10T00:20:02;9.67;;;5.70;;
47539;SDS011;33280;52.152;21.052;2023-05-10T00:22:31;8.87;;;5.47;;
47539;SDS011;33280;52.152;21.052;2023-05-10T00:24:58;10.07;;;5.93;;
47539;SDS011;33280;52.152;21.052;2023-05-10T00:27:25;10.67;;;5.50;;
47539;SDS011;33280;52.152;21.052;2023-05-10T00:29:52;8.57;;;5.20;;
47539;SDS011;33280;52.152;21.052;2023-05-10T00:32:19;11.70;;;6.07;;
47539;SDS011;33280;52.152;21.052;2023-05-10T00:34:47;8.17;;;5.10;;
47539;SDS011;33280;52.152;21.052;2023-05-10T00:37:14;9.47;;;5.67;;
47539;SDS011;33280;52.152;21.052;2023-05-10T00:39:41;9.30;;;5.30;;
47539;SDS011;33280;52.152;21.052;2023-05-10T00:42:08;10.73;;;5.83;;
47539;SDS011;33280;52.152;21.052;2023-05-10T00:44:34;9.90;;;5.67;;
47539;SDS011;33280;52.152;21.052;2023-05-10T00:47:02;9.60;;;5.37;;
47539;SDS011;33280;52.152;21.052;2023-05-10T00:49:29;10.10;;;5.50;;
47539;SDS011;33280;52.152;21.052;2023-05-10T00:51:56;9.23;;;5.13;;
47539;SDS011;33280;52.152;21.052;2023-05-10T00:54:23;8.93;;;5.10;;
47539;SDS011;33280;52.152;21.052;2023-05-10T00:56:50;8.43;;;5.30;;
47539;SDS011;33280;52.152;21.052;2023-05-10T00:59:18;9.60;;;4.97;;
47539;SDS011;33280;52.152;21.052;2023-05-10T01:01:46;8.27;;;5.43;;
47539;SDS011;33280;52.152;21.052;2023-05-10T01:04:14;7.87;;;5.10;;
47539;SDS011;33280;52.152;21.052;2023-05-10T01:06:41;9.87;;;5.03;;
47539;SDS011;33280;52.152;21.052;2023-05-10T01:09:09;8.03;;;4.87;;
47539;SDS011;33280;52.152;21.052;2023-05-10T01:11:38;9.53;;;5.13;;
47539;SDS011;33280;52.152;21.052;2023-05-10T01:14:06;9.77;;;5.60;;
47539;SDS011;33280;52.152;21.052;2023-05-10T01:16:35;9.77;;;4.80;;
47539;SDS011;33280;52.152;21.052;2023-05-10T01:19:26;11.33;;;5.30;;
47539;SDS011;33280;52.152;21.052;2023-05-10T01:30:18;9.67;;;5.27;;
47539;SDS011;33280;52.152;21.052;2023-05-10T01:33:05;9.13;;;5.20;;
47539;SDS011;33280;52.152;21.052;2023-05-10T01:38:38;9.77;;;5.17;;
47539;SDS011;33280;52.152;21.052;2023-05-10T01:44:24;9.57;;;4.80;;
47539;SDS011;33280;52.152;21.052;2023-05-10T01:47:17;10.60;;;4.70;;
47539;SDS011;33280;52.152;21.052;2023-05-10T01:49:52;9.63;;;4.40;;
47539;SDS011;33280;52.152;21.052;2023-05-10T01:52:24;7.87;;;4.40;;
47539;SDS011;33280;52.152;21.052;2023-05-10T01:55:01;9.07;;;5.00;;
47539;SDS011;33280;52.152;21.052;2023-05-10T01:57:37;7.90;;;4.73;;
47539;SDS011;33280;52.152;21.052;2023-05-10T02:00:07;7.30;;;4.80;;
47539;SDS011;33280;52.152;21.052;2023-05-10T02:02:37;9.10;;;5.07;;
47539;SDS011;33280;52.152;21.052;2023-05-10T02:05:05;9.53;;;4.63;;
47539;SDS011;33280;52.152;21.052;2023-05-10T02:07:36;10.30;;;4.60;;
47539;SDS011;33280;52.152;21.052;2023-05-10T02:10:04;9.53;;;4.60;;
47539;SDS011;33280;52.152;21.052;2023-05-10T02:12:37;6.90;;;4.27;;
47539;SDS011;33280;52.152;21.052;2023-05-10T02:15:08;8.10;;;3.90;;
47539;SDS011;33280;52.152;21.052;2023-05-10T02:17:37;9.53;;;4.50;;
47539;SDS011;33280;52.152;21.052;2023-05-10T02:20:06;8.27;;;4.47;;
47539;SDS011;33280;52.152;21.052;2023-05-10T02:22:34;9.17;;;4.40;;
47539;SDS011;33280;52.152;21.052;2023-05-10T02:25:03;10.73;;;4.67;;
47539;SDS011;33280;52.152;21.052;2023-05-10T02:27:30;7.70;;;4.60;;
47539;SDS011;33280;52.152;21.052;2023-05-10T02:29:57;7.67;;;4.83;;
47539;SDS011;33280;52.152;21.052;2023-05-10T02:32:25;7.43;;;4.70;;
47539;SDS011;33280;52.152;21.052;2023-05-10T02:34:53;7.70;;;5.13;;
47539;SDS011;33280;52.152;21.052;2023-05-10T02:37:22;10.13;;;5.10;;
47539;SDS011;33280;52.152;21.052;2023-05-10T02:39:50;7.97;;;4.97;;
47539;SDS011;33280;52.152;21.052;2023-05-10T02:42:22;11.30;;;5.00;;
47539;SDS011;33280;52.152;21.052;2023-05-10T02:44:53;10.40;;;5.20;;
47539;SDS011;33280;52.152;21.052;2023-05-10T02:47:23;8.87;;;4.90;;
47539;SDS011;33280;52.152;21.052;2023-05-10T02:49:49;9.07;;;5.07;;
47539;SDS011;33280;52.152;21.052;2023-05-10T02:52:19;9.40;;;5.10;;
47539;SDS011;33280;52.152;21.052;2023-05-10T02:54:50;10.43;;;5.47;;
47539;SDS011;33280;52.152;21.052;2023-05-10T02:57:22;9.30;;;5.80;;
47539;SDS011;33280;52.152;21.052;2023-05-10T02:59:54;9.50;;;5.73;;
47539;SDS011;33280;52.152;21.052;2023-05-10T03:02:21;10.23;;;5.30;;
47539;SDS011;33280;52.152;21.052;2023-05-10T03:04:48;9.53;;;5.97;;
47539;SDS011;33280;52.152;21.052;2023-05-10T03:07:15;10.57;;;5.87;;
47539;SDS011;33280;52.152;21.052;2023-05-10T03:09:45;10.40;;;5.63;;
47539;SDS011;33280;52.152;21.052;2023-05-10T03:12:21;8.83;;;5.37;;
47539;SDS011;33280;52.152;21.052;2023-05-10T03:15:11;10.03;;;5.27;;
47539;SDS011;33280;52.152;21.052;2023-05-10T03:17:52;9.83;;;5.03;;
47539;SDS011;33280;52.152;21.052;2023-05-10T03:20:38;6.90;;;4.93;;
47539;SDS011;33280;52.152;21.052;2023-05-10T03:23:20;12.07;;;5.33;;
47539;SDS011;33280;52.152;21.052;2023-05-10T03:25:56;7.50;;;4.57;;
47539;SDS011;33280;52.152;21.052;2023-05-10T03:28:24;7.63;;;4.93;;
47539;SDS011;33280;52.152;21.052;2023-05-10T03:30:53;7.27;;;4.60;;
47539;SDS011;33280;52.152;21.052;2023-05-10T03:33:21;8.53;;;4.67;;
47539;SDS011;33280;52.152;21.052;2023-05-10T03:35:48;10.47;;;4.80;;
47539;SDS011;33280;52.152;21.052;2023-05-10T03:38:15;10.73;;;4.80;;
47539;SDS011;33280;52.152;21.052;2023-05-10T03:40:42;9.10;;;5.20;;
47539;SDS011;33280;52.152;21.052;2023-05-10T03:43:09;7.80;;;4.37;;
47539;SDS011;33280;52.152;21.052;2023-05-10T03:45:36;6.80;;;4.40;;
47539;SDS011;33280;52.152;21.052;2023-05-10T03:48:03;8.63;;;4.23;;
47539;SDS011;33280;52.152;21.052;2023-05-10T03:50:30;9.43;;;4.60;;
47539;SDS011;33280;52.152;21.052;2023-05-10T03:52:57;7.20;;;4.20;;
47539;SDS011;33280;52.152;21.052;2023-05-10T03:55:24;11.87;;;4.77;;
47539;SDS011;33280;52.152;21.052;2023-05-10T03:57:51;8.57;;;4.47;;
47539;SDS011;33280;52.152;21.052;2023-05-10T04:00:20;7.93;;;4.50;;
47539;SDS011;33280;52.152;21.052;2023-05-10T04:02:46;5.50;;;4.00;;
47539;SDS011;33280;52.152;21.052;2023-05-10T04:05:13;8.13;;;4.83;;
47539;SDS011;33280;52.152;21.052;2023-05-10T04:07:40;9.13;;;4.33;;
47539;SDS011;33280;52.152;21.052;2023-05-10T04:10:07;7.70;;;4.43;;
47539;SDS011;33280;52.152;21.052;2023-05-10T04:12:34;10.77;;;4.70;;
47539;SDS011;33280;52.152;21.052;2023-05-10T04:15:01;10.33;;;4.80;;
47539;SDS011;33280;52.152;21.052;2023-05-10T04:17:28;8.03;;;4.60;;
47539;SDS011;33280;52.152;21.052;2023-05-10T04:19:55;7.43;;;4.30;;
47539;SDS011;33280;52.152;21.052;2023-05-10T04:22:22;8.03;;;4.00;;
47539;SDS011;33280;52.152;21.052;2023-05-10T04:24:49;9.23;;;4.43;;
47539;SDS011;33280;52.152;21.052;2023-05-10T04:27:16;10.83;;;4.33;;
47539;SDS011;33280;52.152;21.052;2023-05-10T04:29:43;10.60;;;4.20;;
47539;SDS011;33280;52.152;21.052;2023-05-10T04:32:10;11.07;;;5.10;;
47539;SDS011;33280;52.152;21.052;2023-05-10T04:34:39;10.23;;;4.27;;
47539;SDS011;33280;52.152;21.052;2023-05-10T04:37:06;6.57;;;4.17;;
47539;SDS011;33280;52.152;21.052;2023-05-10T04:39:33;8.43;;;4.57;;
47539;SDS011;33280;52.152;21.052;2023-05-10T04:42:02;8.17;;;4.40;;
47539;SDS011;33280;52.152;21.052;2023-05-10T04:44:32;9.10;;;4.90;;
47539;SDS011;33280;52.152;21.052;2023-05-10T04:46:59;10.33;;;4.50;;
47539;SDS011;33280;52.152;21.052;2023-05-10T04:49:26;8.77;;;4.90;;
47539;SDS011;33280;52.152;21.052;2023-05-10T04:51:53;10.13;;;4.57;;
47539;SDS011;33280;52.152;21.052;2023-05-10T04:54:19;14.90;;;4.80;;
47539;SDS011;33280;52.152;21.052;2023-05-10T04:56:46;10.60;;;5.07;;
47539;SDS011;33280;52.152;21.052;2023-05-10T04:59:13;9.87;;;4.67;;
47539;SDS011;33280;52.152;21.052;2023-05-10T05:01:40;7.80;;;4.97;;
47539;SDS011;33280;52.152;21.052;2023-05-10T05:04:07;8.87;;;4.43;;
47539;SDS011;33280;52.152;21.052;2023-05-10T05:06:34;6.60;;;4.47;;
47539;SDS011;33280;52.152;21.052;2023-05-10T05:09:01;11.93;;;4.63;;
47539;SDS011;33280;52.152;21.052;2023-05-10T05:11:29;12.03;;;4.83;;
47539;SDS011;33280;52.152;21.052;2023-05-10T05:13:56;21.17;;;5.73;;
47539;SDS011;33280;52.152;21.052;2023-05-10T05:16:31;16.13;;;5.93;;
47539;SDS011;33280;52.152;21.052;2023-05-10T05:18:59;74.03;;;13.90;;
47539;SDS011;33280;52.152;21.052;2023-05-10T05:21:26;20.70;;;6.20;;
47539;SDS011;33280;52.152;21.052;2023-05-10T05:23:54;15.37;;;4.90;;
47539;SDS011;33280;52.152;21.052;2023-05-10T05:26:21;18.60;;;5.67;;
47539;SDS011;33280;52.152;21.052;2023-05-10T05:28:48;17.53;;;5.23;;
47539;SDS011;33280;52.152;21.052;2023-05-10T05:31:18;21.23;;;5.53;;
47539;SDS011;33280;52.152;21.052;2023-05-10T05:33:45;20.40;;;6.07;;
47539;SDS011;33280;52.152;21.052;2023-05-10T05:36:12;22.57;;;5.87;;
47539;SDS011;33280;52.152;21.052;2023-05-10T05:38:39;26.13;;;6.43;;
47539;SDS011;33280;52.152;21.052;2023-05-10T05:41:06;23.43;;;5.57;;
47539;SDS011;33280;52.152;21.052;2023-05-10T05:43:33;7.63;;;4.03;;
47539;SDS011;33280;52.152;21.052;2023-05-10T05:46:03;12.20;;;4.13;;
47539;SDS011;33280;52.152;21.052;2023-05-10T05:48:30;8.03;;;3.90;;
47539;SDS011;33280;52.152;21.052;2023-05-10T05:50:57;9.83;;;4.17;;
47539;SDS011;33280;52.152;21.052;2023-05-10T05:53:24;7.70;;;3.70;;
47539;SDS011;33280;52.152;21.052;2023-05-10T05:55:55;8.20;;;4.20;;
47539;SDS011;33280;52.152;21.052;2023-05-10T05:58:24;6.90;;;3.57;;
47539;SDS011;33280;52.152;21.052;2023-05-10T06:00:51;11.70;;;4.73;;
47539;SDS011;33280;52.152;21.052;2023-05-10T06:03:19;14.53;;;5.23;;
47539;SDS011;33280;52.152;21.052;2023-05-10T06:05:46;9.40;;;4.03;;
47539;SDS011;33280;52.152;21.052;2023-05-10T06:08:13;19.20;;;6.57;;
47539;SDS011;33280;52.152;21.052;2023-05-10T06:10:40;12.77;;;4.90;;
47539;SDS011;33280;52.152;21.052;2023-05-10T06:13:07;10.63;;;4.17;;
47539;SDS011;33280;52.152;21.052;2023-05-10T06:15:35;12.13;;;4.37;;
47539;SDS011;33280;52.152;21.052;2023-05-10T06:18:03;9.30;;;4.30;;
47539;SDS011;33280;52.152;21.052;2023-05-10T06:20:31;12.97;;;4.23;;
47539;SDS011;33280;52.152;21.052;2023-05-10T06:23:01;11.03;;;4.20;;
47539;SDS011;33280;52.152;21.052;2023-05-10T06:25:28;7.17;;;3.70;;
47539;SDS011;33280;52.152;21.052;2023-05-10T06:27:55;8.00;;;4.00;;
47539;SDS011;33280;52.152;21.052;2023-05-10T06:30:24;6.67;;;3.10;;
47539;SDS011;33280;52.152;21.052;2023-05-10T06:33:00;9.83;;;3.43;;
47539;SDS011;33280;52.152;21.052;2023-05-10T06:35:28;7.87;;;3.70;;
47539;SDS011;33280;52.152;21.052;2023-05-10T06:37:55;5.97;;;3.17;;
47539;SDS011;33280;52.152;21.052;2023-05-10T06:40:22;6.23;;;3.10;;
47539;SDS011;33280;52.152;21.052;2023-05-10T06:42:49;6.97;;;3.17;;
47539;SDS011;33280;52.152;21.052;2023-05-10T06:45:16;5.63;;;2.93;;
47539;SDS011;33280;52.152;21.052;2023-05-10T06:47:44;7.60;;;3.07;;
47539;SDS011;33280;52.152;21.052;2023-05-10T06:50:11;8.50;;;3.10;;
47539;SDS011;33280;52.152;21.052;2023-05-10T06:52:38;6.63;;;3.30;;
47539;SDS011;33280;52.152;21.052;2023-05-10T06:55:05;5.53;;;2.80;;
47539;SDS011;33280;52.152;21.052;2023-05-10T06:57:32;9.50;;;3.00;;
47539;SDS011;33280;52.152;21.052;2023-05-10T06:59:59;7.90;;;2.83;;
47539;SDS011;33280;52.152;21.052;2023-05-10T07:02:26;7.93;;;3.20;;
47539;SDS011;33280;52.152;21.052;2023-05-10T07:04:54;6.17;;;2.80;;
47539;SDS011;33280;52.152;21.052;2023-05-10T07:07:21;5.17;;;3.10;;
47539;SDS011;33280;52.152;21.052;2023-05-10T07:09:48;11.50;;;3.47;;
47539;SDS011;33280;52.152;21.052;2023-05-10T07:12:17;4.10;;;2.50;;
47539;SDS011;33280;52.152;21.052;2023-05-10T07:14:44;6.70;;;2.50;;
47539;SDS011;33280;52.152;21.052;2023-05-10T07:17:11;3.83;;;2.80;;
47539;SDS011;33280;52.152;21.052;2023-05-10T07:19:38;6.30;;;2.80;;
47539;SDS011;33280;52.152;21.052;2023-05-10T07:22:05;10.10;;;2.70;;
47539;SDS011;33280;52.152;21.052;2023-05-10T07:24:32;5.70;;;2.40;;
47539;SDS011;33280;52.152;21.052;2023-05-10T07:26:59;7.00;;;2.40;;
47539;SDS011;33280;52.152;21.052;2023-05-10T07:29:26;4.03;;;2.10;;
47539;SDS011;33280;52.152;21.052;2023-05-10T07:31:53;4.13;;;2.30;;
47539;SDS011;33280;52.152;21.052;2023-05-10T07:34:24;3.50;;;2.20;;
47539;SDS011;33280;52.152;21.052;2023-05-10T07:36:51;4.17;;;2.30;;
47539;SDS011;33280;52.152;21.052;2023-05-10T07:39:18;4.93;;;2.10;;
47539;SDS011;33280;52.152;21.052;2023-05-10T07:41:53;5.10;;;2.00;;
47539;SDS011;33280;52.152;21.052;2023-05-10T07:44:20;3.00;;;1.97;;
47539;SDS011;33280;52.152;21.052;2023-05-10T07:46:48;2.70;;;2.10;;
47539;SDS011;33280;52.152;21.052;2023-05-10T07:49:15;5.07;;;2.10;;
47539;SDS011;33280;52.152;21.052;2023-05-10T07:51:42;4.07;;;2.33;;
47539;SDS011;33280;52.152;21.052;2023-05-10T07:54:09;4.90;;;2.10;;
47539;SDS011;33280;52.152;21.052;2023-05-10T07:56:37;6.47;;;2.13;;
47539;SDS011;33280;52.152;21.052;2023-05-10T07:59:04;4.20;;;2.10;;
47539;SDS011;33280;52.152;21.052;2023-05-10T08:01:34;4.60;;;2.10;;
47539;SDS011;33280;52.152;21.052;2023-05-10T08:04:01;4.87;;;1.70;;
47539;SDS011;33280;52.152;21.052;2023-05-10T08:06:29;4.67;;;1.80;;
47539;SDS011;33280;52.152;21.052;2023-05-10T08:08:56;5.60;;;2.10;;
47539;SDS011;33280;52.152;21.052;2023-05-10T08:11:23;7.37;;;2.53;;
47539;SDS011;33280;52.152;21.052;2023-05-10T08:13:51;2.83;;;2.10;;
47539;SDS011;33280;52.152;21.052;2023-05-10T08:16:18;3.30;;;2.00;;
47539;SDS011;33280;52.152;21.052;2023-05-10T08:18:46;5.33;;;2.10;;
47539;SDS011;33280;52.152;21.052;2023-05-10T08:21:14;4.53;;;2.33;;
47539;SDS011;33280;52.152;21.052;2023-05-10T08:23:41;4.17;;;2.00;;
47539;SDS011;33280;52.152;21.052;2023-05-10T08:26:10;4.57;;;1.93;;
47539;SDS011;33280;52.152;21.052;2023-05-10T08:28:37;8.30;;;1.90;;
47539;SDS011;33280;52.152;21.052;2023-05-10T08:31:05;6.23;;;2.20;;
47539;SDS011;33280;52.152;21.052;2023-05-10T08:33:32;5.73;;;1.87;;
47539;SDS011;33280;52.152;21.052;2023-05-10T08:35:59;7.10;;;2.20;;
47539;SDS011;33280;52.152;21.052;2023-05-10T08:38:26;6.03;;;2.30;;
47539;SDS011;33280;52.152;21.052;2023-05-10T08:40:54;10.00;;;2.77;;
47539;SDS011;33280;52.152;21.052;2023-05-10T08:43:26;4.33;;;1.97;;
47539;SDS011;33280;52.152;21.052;2023-05-10T08:45:55;4.17;;;2.00;;
47539;SDS011;33280;52.152;21.052;2023-05-10T08:48:24;5.90;;;1.73;;
47539;SDS011;33280;52.152;21.052;2023-05-10T08:50:52;6.13;;;2.00;;
47539;SDS011;33280;52.152;21.052;2023-05-10T08:53:21;11.40;;;2.07;;
47539;SDS011;33280;52.152;21.052;2023-05-10T08:55:51;4.03;;;1.87;;
47539;SDS011;33280;52.152;21.052;2023-05-10T08:58:19;5.17;;;2.03;;
47539;SDS011;33280;52.152;21.052;2023-05-10T09:00:49;5.03;;;2.40;;
47539;SDS011;33280;52.152;21.052;2023-05-10T09:03:19;4.17;;;2.00;;
47539;SDS011;33280;52.152;21.052;2023-05-10T09:05:46;4.23;;;2.30;;
47539;SDS011;33280;52.152;21.052;2023-05-10T09:08:14;5.83;;;2.20;;
47539;SDS011;33280;52.152;21.052;2023-05-10T09:10:45;2.40;;;1.70;;
47539;SDS011;33280;52.152;21.052;2023-05-10T09:13:14;4.50;;;2.07;;
47539;SDS011;33280;52.152;21.052;2023-05-10T09:15:43;5.33;;;2.17;;
47539;SDS011;33280;52.152;21.052;2023-05-10T09:18:11;5.90;;;2.10;;
47539;SDS011;33280;52.152;21.052;2023-05-10T09:20:38;4.23;;;2.47;;
47539;SDS011;33280;52.152;21.052;2023-05-10T09:23:06;3.03;;;1.97;;
47539;SDS011;33280;52.152;21.052;2023-05-10T09:25:34;3.97;;;2.20;;
47539;SDS011;33280;52.152;21.052;2023-05-10T09:28:01;5.73;;;2.23;;
47539;SDS011;33280;52.152;21.052;2023-05-10T09:30:29;4.60;;;2.20;;
47539;SDS011;33280;52.152;21.052;2023-05-10T09:32:57;5.57;;;2.20;;
47539;SDS011;33280;52.152;21.052;2023-05-10T09:35:27;4.63;;;2.10;;
47539;SDS011;33280;52.152;21.052;2023-05-10T09:37:56;5.33;;;2.23;;
47539;SDS011;33280;52.152;21.052;2023-05-10T09:40:27;7.47;;;2.30;;
47539;SDS011;33280;52.152;21.052;2023-05-10T09:45:24;4.03;;;2.33;;
47539;SDS011;33280;52.152;21.052;2023-05-10T09:47:53;4.07;;;2.17;;
47539;SDS011;33280;52.152;21.052;2023-05-10T09:50:21;4.40;;;2.10;;
47539;SDS011;33280;52.152;21.052;2023-05-10T09:55:23;2.83;;;2.00;;
47539;SDS011;33280;52.152;21.052;2023-05-10T09:57:59;5.87;;;2.20;;
47539;SDS011;33280;52.152;21.052;2023-05-10T10:00:27;5.25;;;2.40;;
47539;SDS011;33280;52.152;21.052;2023-05-10T10:02:55;4.35;;;2.40;;
47539;SDS011;33280;52.152;21.052;2023-05-10T10:07:58;8.30;;;2.70;;
47539;SDS011;33280;52.152;21.052;2023-05-10T10:10:26;5.72;;;2.20;;
47539;SDS011;33280;52.152;21.052;2023-05-10T10:12:53;3.83;;;2.20;;
47539;SDS011;33280;52.152;21.052;2023-05-10T10:15:21;3.97;;;2.47;;
47539;SDS011;33280;52.152;21.052;2023-05-10T10:17:49;6.60;;;2.20;;
47539;SDS011;33280;52.152;21.052;2023-05-10T10:20:18;9.50;;;2.50;;
47539;SDS011;33280;52.152;21.052;2023-05-10T10:22:47;4.00;;;2.42;;
47539;SDS011;33280;52.152;21.052;2023-05-10T10:25:15;8.80;;;2.50;;
47539;SDS011;33280;52.152;21.052;2023-05-10T10:35:55;10.52;;;2.30;;
47539;SDS011;33280;52.152;21.052;2023-05-10T10:38:35;6.55;;;2.50;;
47539;SDS011;33280;52.152;21.052;2023-05-10T10:41:33;4.75;;;2.28;;
47539;SDS011;33280;52.152;21.052;2023-05-10T10:47:07;3.45;;;2.20;;
47539;SDS011;33280;52.152;21.052;2023-05-10T10:52:15;5.45;;;2.35;;
47539;SDS011;33280;52.152;21.052;2023-05-10T10:57:19;4.47;;;2.28;;
47539;SDS011;33280;52.152;21.052;2023-05-10T10:59:49;5.50;;;2.30;;
47539;SDS011;33280;52.152;21.052;2023-05-10T11:02:32;3.58;;;2.17;;
47539;SDS011;33280;52.152;21.052;2023-05-10T11:05:58;4.55;;;2.50;;
47539;SDS011;33280;52.152;21.052;2023-05-10T11:08:06;6.40;;;2.55;;
47539;SDS011;33280;52.152;21.052;2023-05-10T11:10:48;6.95;;;2.80;;
47539;SDS011;33280;52.152;21.052;2023-05-10T11:13:26;4.78;;;2.20;;
47539;SDS011;33280;52.152;21.052;2023-05-10T11:16:12;6.10;;;2.53;;
47539;SDS011;33280;52.152;21.052;2023-05-10T11:18:40;8.45;;;2.70;;
47539;SDS011;33280;52.152;21.052;2023-05-10T11:21:08;3.92;;;2.40;;
47539;SDS011;33280;52.152;21.052;2023-05-10T11:26:14;4.65;;;2.30;;
47539;SDS011;33280;52.152;21.052;2023-05-10T11:28:42;5.03;;;2.40;;
47539;SDS011;33280;52.152;21.052;2023-05-10T11:31:17;7.10;;;2.40;;
47539;SDS011;33280;52.152;21.052;2023-05-10T11:33:52;5.78;;;2.47;;
47539;SDS011;33280;52.152;21.052;2023-05-10T11:38:50;4.30;;;2.50;;
47539;SDS011;33280;52.152;21.052;2023-05-10T11:41:17;8.25;;;2.50;;
47539;SDS011;33280;52.152;21.052;2023-05-10T11:43:51;5.40;;;2.42;;
47539;SDS011;33280;52.152;21.052;2023-05-10T11:46:20;9.63;;;2.70;;
47539;SDS011;33280;52.152;21.052;2023-05-10T11:48:51;7.45;;;2.60;;
47539;SDS011;33280;52.152;21.052;2023-05-10T11:51:32;5.28;;;2.60;;
47539;SDS011;33280;52.152;21.052;2023-05-10T11:54:05;5.65;;;2.60;;
47539;SDS011;33280;52.152;21.052;2023-05-10T11:56:37;4.15;;;2.30;;
47539;SDS011;33280;52.152;21.052;2023-05-10T11:59:06;3.63;;;2.40;;
47539;SDS011;33280;52.152;21.052;2023-05-10T12:01:34;8.63;;;2.53;;
47539;SDS011;33280;52.152;21.052;2023-05-10T12:04:03;5.72;;;2.47;;
47539;SDS011;33280;52.152;21.052;2023-05-10T12:06:31;3.30;;;2.20;;
47539;SDS011;33280;52.152;21.052;2023-05-10T12:09:07;4.72;;;2.30;;
47539;SDS011;33280;52.152;21.052;2023-05-10T12:11:36;6.85;;;2.58;;
47539;SDS011;33280;52.152;21.052;2023-05-10T12:14:09;5.43;;;2.58;;
47539;SDS011;33280;52.152;21.052;2023-05-10T12:16:36;7.03;;;2.47;;
47539;SDS011;33280;52.152;21.052;2023-05-10T12:19:03;3.88;;;2.30;;
47539;SDS011;33280;52.152;21.052;2023-05-10T12:21:32;4.00;;;2.20;;
47539;SDS011;33280;52.152;21.052;2023-05-10T12:24:01;7.03;;;2.50;;
47539;SDS011;33280;52.152;21.052;2023-05-10T12:26:29;8.40;;;2.53;;
47539;SDS011;33280;52.152;21.052;2023-05-10T12:29:15;6.60;;;2.38;;
47539;SDS011;33280;52.152;21.052;2023-05-10T12:31:53;5.05;;;2.72;;
47539;SDS011;33280;52.152;21.052;2023-05-10T12:34:23;3.75;;;2.10;;
47539;SDS011;33280;52.152;21.052;2023-05-10T12:36:56;5.43;;;2.20;;
47539;SDS011;33280;52.152;21.052;2023-05-10T12:39:24;7.22;;;2.40;;
47539;SDS011;33280;52.152;21.052;2023-05-10T12:41:52;5.28;;;1.88;;
47539;SDS011;33280;52.152;21.052;2023-05-10T12:44:19;5.47;;;2.20;;
47539;SDS011;33280;52.152;21.052;2023-05-10T12:46:46;5.60;;;2.33;;
47539;SDS011;33280;52.152;21.052;2023-05-10T12:49:13;6.93;;;2.90;;
47539;SDS011;33280;52.152;21.052;2023-05-10T12:51:40;6.57;;;2.20;;
47539;SDS011;33280;52.152;21.052;2023-05-10T12:54:07;5.32;;;2.40;;
47539;SDS011;33280;52.152;21.052;2023-05-10T12:56:34;4.07;;;2.53;;
47539;SDS011;33280;52.152;21.052;2023-05-10T12:59:01;5.80;;;2.67;;
47539;SDS011;33280;52.152;21.052;2023-05-10T13:01:28;4.32;;;2.30;;
47539;SDS011;33280;52.152;21.052;2023-05-10T13:03:55;5.78;;;2.20;;
47539;SDS011;33280;52.152;21.052;2023-05-10T13:06:22;5.20;;;2.78;;
47539;SDS011;33280;52.152;21.052;2023-05-10T13:08:49;3.75;;;2.33;;
47539;SDS011;33280;52.152;21.052;2023-05-10T13:11:16;5.45;;;2.13;;
47539;SDS011;33280;52.152;21.052;2023-05-10T13:13:43;4.43;;;2.20;;
47539;SDS011;33280;52.152;21.052;2023-05-10T13:16:11;3.47;;;2.15;;
47539;SDS011;33280;52.152;21.052;2023-05-10T13:18:38;3.58;;;2.28;;
47539;SDS011;33280;52.152;21.052;2023-05-10T13:21:05;4.30;;;2.38;;
47539;SDS011;33280;52.152;21.052;2023-05-10T13:23:32;4.53;;;2.30;;
47539;SDS011;33280;52.152;21.052;2023-05-10T13:25:59;4.15;;;2.22;;
47539;SDS011;33280;52.152;21.052;2023-05-10T13:28:26;3.40;;;2.20;;
47539;SDS011;33280;52.152;21.052;2023-05-10T13:30:53;3.88;;;1.90;;
47539;SDS011;33280;52.152;21.052;2023-05-10T13:33:20;4.20;;;2.20;;
47539;SDS011;33280;52.152;21.052;2023-05-10T13:35:46;3.30;;;2.30;;
47539;SDS011;33280;52.152;21.052;2023-05-10T13:38:13;7.53;;;2.40;;
47539;SDS011;33280;52.152;21.052;2023-05-10T13:40:40;5.78;;;2.10;;
47539;SDS011;33280;52.152;21.052;2023-05-10T13:43:07;4.53;;;2.17;;
47539;SDS011;33280;52.152;21.052;2023-05-10T13:45:34;4.10;;;2.20;;
47539;SDS011;33280;52.152;21.052;2023-05-10T13:48:02;3.67;;;2.65;;
47539;SDS011;33280;52.152;21.052;2023-05-10T13:50:29;2.40;;;1.90;;
47539;SDS011;33280;52.152;21.052;2023-05-10T13:52:56;4.35;;;2.05;;
47539;SDS011;33280;52.152;21.052;2023-05-10T13:58:46;4.30;;;2.20;;
47539;SDS011;33280;52.152;21.052;2023-05-10T14:01:14;2.67;;;2.00;;
47539;SDS011;33280;52.152;21.052;2023-05-10T14:03:41;4.43;;;2.35;;
47539;SDS011;33280;52.152;21.052;2023-05-10T14:06:09;3.22;;;2.13;;
47539;SDS011;33280;52.152;21.052;2023-05-10T14:08:36;3.50;;;2.20;;
47539;SDS011;33280;52.152;21.052;2023-05-10T14:11:03;2.65;;;1.90;;
47539;SDS011;33280;52.152;21.052;2023-05-10T14:13:31;3.00;;;2.13;;
47539;SDS011;33280;52.152;21.052;2023-05-10T14:15:58;4.22;;;2.20;;
47539;SDS011;33280;52.152;21.052;2023-05-10T14:18:27;7.43;;;2.10;;
47539;SDS011;33280;52.152;21.052;2023-05-10T14:20:54;4.13;;;2.17;;
47539;SDS011;33280;52.152;21.052;2023-05-10T14:23:22;3.95;;;2.05;;
47539;SDS011;33280;52.152;21.052;2023-05-10T14:25:52;4.38;;;2.47;;
47539;SDS011;33280;52.152;21.052;2023-05-10T14:28:19;3.72;;;2.13;;
47539;SDS011;33280;52.152;21.052;2023-05-10T14:30:47;4.55;;;2.30;;
47539;SDS011;33280;52.152;21.052;2023-05-10T14:33:14;3.20;;;2.13;;
47539;SDS011;33280;52.152;21.052;2023-05-10T14:35:41;5.88;;;2.42;;
47539;SDS011;33280;52.152;21.052;2023-05-10T14:38:08;4.00;;;2.15;;
47539;SDS011;33280;52.152;21.052;2023-05-10T14:40:35;3.00;;;2.13;;
47539;SDS011;33280;52.152;21.052;2023-05-10T14:43:02;2.83;;;1.90;;
47539;SDS011;33280;52.152;21.052;2023-05-10T14:45:29;4.40;;;2.03;;
47539;SDS011;33280;52.152;21.052;2023-05-10T14:47:56;5.32;;;2.13;;
47539;SDS011;33280;52.152;21.052;2023-05-10T14:50:24;6.03;;;2.22;;
47539;SDS011;33280;52.152;21.052;2023-05-10T14:56:26;5.13;;;2.38;;
47539;SDS011;33280;52.152;21.052;2023-05-10T14:58:54;3.88;;;2.30;;
47539;SDS011;33280;52.152;21.052;2023-05-10T15:01:21;5.97;;;2.30;;
47539;SDS011;33280;52.152;21.052;2023-05-10T15:03:49;4.25;;;2.20;;
47539;SDS011;33280;52.152;21.052;2023-05-10T15:06:17;3.90;;;2.17;;
47539;SDS011;33280;52.152;21.052;2023-05-10T15:08:51;6.15;;;2.20;;
47539;SDS011;33280;52.152;21.052;2023-05-10T15:11:18;6.05;;;2.40;;
47539;SDS011;33280;52.152;21.052;2023-05-10T15:13:45;4.20;;;2.45;;
47539;SDS011;33280;52.152;21.052;2023-05-10T15:16:11;3.92;;;2.17;;
47539;SDS011;33280;52.152;21.052;2023-05-10T15:18:38;2.92;;;2.10;;
47539;SDS011;33280;52.152;21.052;2023-05-10T15:21:05;4.55;;;2.30;;
47539;SDS011;33280;52.152;21.052;2023-05-10T15:23:32;4.25;;;2.33;;
47539;SDS011;33280;52.152;21.052;2023-05-10T15:26:00;3.33;;;2.30;;
47539;SDS011;33280;52.152;21.052;2023-05-10T15:28:27;3.40;;;2.20;;
47539;SDS011;33280;52.152;21.052;2023-05-10T15:30:54;3.20;;;2.05;;